Time;durP1;ratioP1;P1;durP2;ratioP2;P2;SDS_P1;SDS_P2;PMS_P1;PMS_P2;Temp;Humidity;BMP_temperature;BMP_pressure;BME280_temperature;BME280_humidity;BME280_pressure;Samples;Min_cycle;Max_cycle;Signal;HPM_P1;HPM_P2
2022/04/23 00:01:26;;;;;;;21.67;14.00;;;;;;;11.24;69.44;100504.97;7391855;19;20033;-55
2022/04/23 00:03:57;;;;;;;16.80;14.32;;;;;;;11.19;69.64;100509.63;7388048;19;20313;-57
2022/04/23 00:06:26;;;;;;;17.42;14.07;;;;;;;11.23;69.56;100503.31;7393090;19;20014;-52
2022/04/23 00:08:55;;;;;;;19.20;14.18;;;;;;;11.17;69.85;100513.25;7394250;19;20387;-60
2022/04/23 00:11:26;;;;;;;17.55;14.23;;;;;;;11.14;70.10;100505.53;7389512;19;20014;-61
2022/04/23 00:13:55;;;;;;;17.17;14.82;;;;;;;11.02;70.54;100507.03;7387567;19;20033;-60
2022/04/23 00:16:24;;;;;;;18.30;15.45;;;;;;;11.12;70.30;100502.13;7392454;19;20031;-59
2022/04/23 00:18:53;;;;;;;18.80;15.00;;;;;;;11.13;70.21;100507.31;7388932;19;20018;-61
2022/04/23 00:21:23;;;;;;;17.80;14.93;;;;;;;11.10;70.51;100498.75;7391444;19;20019;-59
2022/04/23 00:23:52;;;;;;;17.90;14.60;;;;;;;11.09;70.60;100503.16;7387329;19;20090;-61
2022/04/23 00:26:21;;;;;;;20.75;16.35;;;;;;;11.00;70.77;100493.97;7391843;19;20022;-60
2022/04/23 00:28:53;;;;;;;22.08;15.38;;;;;;;11.02;71.03;100491.31;7388462;19;20007;-60
2022/04/23 00:31:31;;;;;;;18.98;14.80;;;;;;;10.97;71.23;100495.94;7388535;19;20048;-57
2022/04/23 00:34:00;;;;;;;23.52;16.42;;;;;;;10.97;71.17;100491.50;7386905;19;20038;-60
2022/04/23 00:36:28;;;;;;;23.00;15.68;;;;;;;10.94;71.71;100496.09;7391118;19;20022;-60
2022/04/23 00:38:58;;;;;;;19.77;16.23;;;;;;;10.88;71.82;100503.31;7391595;19;20022;-60
2022/04/23 00:44:11;;;;;;;19.85;16.83;;;;;;;10.80;72.49;100489.75;7389662;19;20085;-58
2022/04/23 00:46:40;;;;;;;21.15;16.55;;;;;;;10.83;72.58;100492.25;7390320;19;20320;-60
2022/04/23 00:49:09;;;;;;;21.83;17.58;;;;;;;10.78;72.48;100493.41;7388710;19;20017;-57
2022/04/23 00:51:41;;;;;;;21.75;17.38;;;;;;;10.71;72.98;100482.38;7388660;19;20022;-59
2022/04/23 00:54:11;;;;;;;25.58;17.40;;;;;;;10.70;73.06;100497.25;7387677;19;20037;-57
2022/04/23 00:56:41;;;;;;;22.15;18.20;;;;;;;10.75;73.25;100490.94;7390171;19;20015;-58
2022/04/23 00:59:15;;;;;;;23.05;18.50;;;;;;;10.72;73.41;100486.69;7388246;19;20573;-59
2022/04/23 01:01:45;;;;;;;23.88;18.30;;;;;;;10.65;73.52;100494.00;7389893;19;20015;-57
2022/04/23 01:04:14;;;;;;;25.33;19.10;;;;;;;10.71;73.50;100488.44;7388675;19;20361;-58
2022/04/23 01:06:46;;;;;;;24.08;19.00;;;;;;;10.66;73.97;100484.34;7389618;19;20011;-56
2022/04/23 01:09:15;;;;;;;24.08;20.10;;;;;;;10.70;73.83;100493.75;7388885;19;20011;-58
2022/04/23 01:11:44;;;;;;;26.85;20.10;;;;;;;10.61;74.40;100492.44;7387493;19;20026;-59
2022/04/23 01:14:18;;;;;;;26.98;20.88;;;;;;;10.68;74.08;100487.75;7386441;19;20027;-59
2022/04/23 01:16:47;;;;;;;27.00;21.02;;;;;;;10.61;74.30;100481.97;7388832;19;20081;-59
2022/04/23 01:19:16;;;;;;;29.45;20.90;;;;;;;10.63;74.58;100484.50;7388853;19;20443;-60
2022/04/23 01:21:48;;;;;;;28.90;21.33;;;;;;;10.59;74.54;100486.47;7388783;19;20476;-59
2022/04/23 01:24:18;;;;;;;27.52;21.73;;;;;;;10.53;75.03;100492.84;7389802;19;20010;-60
2022/04/23 01:26:47;;;;;;;25.80;21.30;;;;;;;10.48;75.43;100494.00;7393326;19;20022;-55
2022/04/23 01:29:17;;;;;;;29.20;21.65;;;;;;;10.52;75.36;100498.16;7394267;19;20014;-60
2022/04/23 01:31:46;;;;;;;28.15;21.50;;;;;;;10.46;75.63;100495.81;7394531;19;20018;-60
2022/04/23 01:34:15;;;;;;;29.98;23.00;;;;;;;10.44;75.84;100487.22;7393845;19;20507;-59
2022/04/23 01:36:44;;;;;;;28.92;22.67;;;;;;;10.56;75.45;100497.94;7396920;19;20078;-60
2022/04/23 01:39:15;;;;;;;28.08;22.75;;;;;;;10.56;75.42;100497.09;7390334;19;20079;-59
2022/04/23 01:41:47;;;;;;;29.23;23.05;;;;;;;10.56;75.52;100484.00;7390529;19;20022;-59
2022/04/23 01:44:15;;;;;;;30.48;23.35;;;;;;;10.56;75.70;100492.69;7386663;19;20021;-59
2022/04/23 01:46:44;;;;;;;29.27;23.23;;;;;;;10.56;75.69;100497.94;7389800;19;20511;-59
2022/04/23 01:49:14;;;;;;;31.48;23.52;;;;;;;10.58;75.62;100504.88;7387481;19;20529;-59
2022/04/23 01:51:43;;;;;;;29.52;24.27;;;;;;;10.66;75.46;100495.72;7387591;19;20038;-60
2022/04/23 01:54:15;;;;;;;28.90;23.67;;;;;;;10.73;75.33;100507.56;7385871;19;20358;-59
2022/04/23 01:56:44;;;;;;;30.00;24.25;;;;;;;10.75;75.35;100512.75;7389021;19;20018;-58
2022/04/23 01:59:13;;;;;;;29.73;24.02;;;;;;;10.73;75.19;100506.72;7387196;19;20014;-55
2022/04/23 02:01:41;;;;;;;31.33;24.27;;;;;;;10.69;75.49;100513.06;7389009;19;20021;-60
2022/04/23 02:04:10;;;;;;;31.92;24.80;;;;;;;10.63;75.72;100503.72;7386052;19;20026;-59
2022/04/23 02:06:39;;;;;;;33.58;24.23;;;;;;;10.69;75.31;100513.88;7388677;19;20025;-57
2022/04/23 02:09:08;;;;;;;32.60;25.35;;;;;;;10.66;75.66;100508.81;7388441;19;20025;-58
2022/04/23 02:11:40;;;;;;;32.08;25.42;;;;;;;10.61;75.80;100504.72;7390275;19;20026;-58
2022/04/23 02:14:10;;;;;;;31.47;25.57;;;;;;;10.67;75.69;100505.25;7385818;19;20025;-59
2022/04/23 02:16:40;;;;;;;33.25;25.63;;;;;;;10.72;75.43;100505.88;7388507;19;20015;-59
2022/04/23 02:19:09;;;;;;;33.55;25.35;;;;;;;10.73;75.38;100504.97;7386672;19;20011;-59
2022/04/23 02:21:38;;;;;;;30.92;23.85;;;;;;;10.65;76.06;100501.88;7388129;19;20014;-59
2022/04/23 02:24:08;;;;;;;32.50;25.70;;;;;;;10.64;75.83;100500.16;7386162;19;20018;-59
2022/04/23 02:26:40;;;;;;;32.65;26.08;;;;;;;10.60;76.27;100505.63;7389087;19;20026;-58
2022/04/23 02:29:11;;;;;;;32.45;26.27;;;;;;;10.68;76.05;100500.88;7387351;19;20017;-57
2022/04/23 02:31:40;;;;;;;35.05;26.83;;;;;;;10.62;76.35;100501.19;7387903;19;20044;-54
2022/04/23 02:34:08;;;;;;;34.47;27.10;;;;;;;10.64;76.22;100502.78;7386216;19;20015;-56
2022/04/23 02:36:38;;;;;;;32.42;26.45;;;;;;;10.58;76.48;100505.72;7388635;19;20017;-54
2022/04/23 02:39:07;;;;;;;31.88;26.75;;;;;;;10.61;76.06;100504.72;7386629;19;20095;-57
2022/04/23 02:41:36;;;;;;;35.25;27.17;;;;;;;10.59;76.44;100499.56;7389086;19;20011;-55
2022/04/23 02:44:08;;;;;;;32.75;27.02;;;;;;;10.61;76.33;100507.34;7385111;19;20396;-56
2022/04/23 02:46:37;;;;;;;34.13;27.02;;;;;;;10.64;76.44;100509.81;7388989;19;20478;-58
2022/04/23 02:49:06;;;;;;;35.63;27.00;;;;;;;10.56;76.60;100513.66;7384782;19;20358;-55
2022/04/23 02:51:36;;;;;;;33.17;26.85;;;;;;;10.50;76.96;100511.34;7387885;19;20018;-56
2022/04/23 02:54:05;;;;;;;34.65;28.65;;;;;;;10.48;77.08;100512.34;7389186;19;20019;-62
2022/04/23 02:56:34;;;;;;;33.83;27.52;;;;;;;10.50;76.90;100508.72;7396748;19;20003;-58
2022/04/23 02:59:05;;;;;;;35.55;27.75;;;;;;;10.46;77.29;100509.78;7393085;19;20037;-59
2022/04/23 03:01:39;;;;;;;34.72;28.23;;;;;;;10.46;77.27;100504.56;7396321;19;20022;-58
2022/04/23 03:04:10;;;;;;;35.42;28.00;;;;;;;10.53;76.95;100499.84;7391223;19;20026;-57
2022/04/23 03:06:42;;;;;;;33.00;27.73;;;;;;;10.44;77.37;100500.31;7392365;19;20022;-58
2022/04/23 03:09:11;;;;;;;35.28;28.38;;;;;;;10.49;77.31;100500.94;7393816;19;20070;-58
2022/04/23 03:11:42;;;;;;;36.17;29.05;;;;;;;10.38;77.78;100496.22;7394478;19;20024;-58
2022/04/23 03:14:10;;;;;;;36.33;28.90;;;;;;;10.35;77.98;100497.19;7391815;19;20013;-55
2022/04/23 03:16:42;;;;;;;41.67;29.15;;;;;;;10.39;77.88;100493.50;7396706;19;20108;-54
2022/04/23 03:19:11;;;;;;;35.35;28.40;;;;;;;10.39;77.87;100503.16;7391849;19;20015;-55
2022/04/23 03:21:40;;;;;;;37.47;28.95;;;;;;;10.34;78.16;100500.72;7394818;19;20025;-55
2022/04/23 03:24:09;;;;;;;37.05;29.25;;;;;;;10.22;78.49;100490.84;7391648;19;20048;-58
2022/04/23 03:26:38;;;;;;;36.17;29.27;;;;;;;10.31;78.62;100498.25;7395027;19;20018;-58
2022/04/23 03:29:07;;;;;;;38.03;29.60;;;;;;;10.38;78.02;100491.81;7392752;19;20029;-56
2022/04/23 03:31:37;;;;;;;36.28;29.60;;;;;;;10.38;78.13;100489.19;7393452;19;20038;-60
2022/04/23 03:34:08;;;;;;;37.22;29.42;;;;;;;10.41;78.35;100489.97;7391223;19;20018;-56
2022/04/23 03:36:39;;;;;;;38.03;30.02;;;;;;;10.25;78.62;100490.69;7394884;19;20018;-58
2022/04/23 03:39:08;;;;;;;37.20;29.83;;;;;;;10.22;78.74;100491.69;7393179;19;20025;-56
2022/04/23 03:41:37;;;;;;;39.17;30.70;;;;;;;10.15;79.17;100486.81;7394891;19;20015;-57
2022/04/23 03:44:06;;;;;;;37.30;29.63;;;;;;;10.17;78.89;100492.81;7393042;19;20480;-58
2022/04/23 03:46:35;;;;;;;38.55;30.88;;;;;;;10.10;79.41;100494.91;7397660;19;20018;-58
2022/04/23 03:49:04;;;;;;;38.45;30.15;;;;;;;10.09;79.60;100487.13;7389659;19;20023;-57
2022/04/23 03:51:36;;;;;;;40.00;30.55;;;;;;;10.15;79.16;100495.50;7392674;19;20019;-56
2022/04/23 03:54:05;;;;;;;38.45;30.73;;;;;;;10.18;78.89;100491.91;7390246;19;20026;-55
2022/04/23 03:56:34;;;;;;;38.55;31.25;;;;;;;10.11;79.20;100500.97;7393051;19;20034;-54
2022/04/23 03:59:02;;;;;;;38.53;30.33;;;;;;;9.98;79.91;100496.31;7390263;19;20038;-59
2022/04/23 04:01:31;;;;;;;39.85;31.92;;;;;;;10.07;79.42;100502.88;7393497;19;20010;-55
2022/04/23 04:04:00;;;;;;;41.35;31.77;;;;;;;10.09;79.46;100501.06;7388029;19;20138;-53
2022/04/23 04:06:29;;;;;;;37.33;30.77;;;;;;;10.13;79.43;100489.50;7392726;19;20350;-55
2022/04/23 04:09:01;;;;;;;40.47;32.72;;;;;;;9.91;80.09;100491.44;7392245;19;20018;-60
2022/04/23 04:12:01;;;;;;;40.33;30.98;;;;;;;9.86;80.54;100489.88;7393838;19;20018;-57
2022/04/23 04:14:19;;;;;;;40.55;31.70;;;;;;;9.90;80.24;100490.59;7389211;19;20018;-59
2022/04/23 04:16:49;;;;;;;40.63;31.77;;;;;;;9.84;80.33;100489.13;7393309;19;20029;-56
2022/04/23 04:19:18;;;;;;;37.78;31.33;;;;;;;9.92;80.26;100494.00;7391325;19;20010;-59
2022/04/23 04:21:49;;;;;;;38.83;30.55;;;;;;;9.89;80.23;100482.81;7392916;19;20104;-57
2022/04/23 04:24:21;;;;;;;40.22;30.80;;;;;;;9.93;80.17;100477.38;7390264;19;20341;-60
2022/04/23 04:26:50;;;;;;;40.97;31.58;;;;;;;9.97;80.42;100488.53;7392435;19;20019;-59
2022/04/23 04:29:20;;;;;;;36.35;30.38;;;;;;;9.84;80.53;100477.78;7391068;19;20014;-57
2022/04/23 04:31:51;;;;;;;39.78;31.45;;;;;;;9.86;80.71;100466.34;7391562;19;20468;-60
2022/04/23 04:34:23;;;;;;;35.57;29.73;;;;;;;9.85;80.44;100474.25;7389061;19;20022;-59
2022/04/23 04:36:53;;;;;;;36.90;29.63;;;;;;;9.77;80.77;100464.16;7392466;19;20095;-59
2022/04/23 04:39:25;;;;;;;40.92;31.08;;;;;;;9.69;81.13;100471.50;7390300;19;20025;-60
2022/04/23 04:41:54;;;;;;;37.83;29.50;;;;;;;9.79;80.66;100469.31;7393080;19;20021;-60
2022/04/23 04:44:23;;;;;;;35.85;29.13;;;;;;;9.80;80.73;100471.00;7388925;19;20015;-60
2022/04/23 04:46:52;;;;;;;40.83;30.17;;;;;;;9.69;81.04;100466.28;7394564;19;20029;-60
2022/04/23 04:49:22;;;;;;;42.28;31.38;;;;;;;9.72;80.78;100470.53;7394324;19;20019;-59
2022/04/23 04:51:51;;;;;;;39.25;30.77;;;;;;;9.60;81.35;100464.06;7390718;19;20014;-59
2022/04/23 04:54:21;;;;;;;38.53;29.88;;;;;;;9.67;81.35;100462.88;7388843;19;20018;-59
2022/04/23 04:56:53;;;;;;;36.58;29.38;;;;;;;9.65;81.12;100464.72;7390969;19;20082;-60
2022/04/23 04:59:23;;;;;;;37.50;30.17;;;;;;;9.68;80.92;100462.78;7390416;19;20017;-56
2022/04/23 05:01:53;;;;;;;38.17;30.27;;;;;;;9.73;81.08;100464.34;7391483;19;20018;-57
2022/04/23 05:04:23;;;;;;;37.00;29.48;;;;;;;9.66;81.35;100464.66;7388872;19;20022;-57
2022/04/23 05:06:52;;;;;;;37.65;29.55;;;;;;;9.63;81.33;100461.34;7391106;19;20122;-57
2022/04/23 05:09:20;;;;;;;36.47;29.65;;;;;;;9.74;81.44;100473.91;7389644;19;20542;-58
2022/04/23 05:11:52;;;;;;;38.88;30.17;;;;;;;9.79;81.02;100466.72;7390319;19;20022;-56
2022/04/23 05:14:21;;;;;;;38.10;30.48;;;;;;;9.80;80.72;100476.22;7389680;19;20018;-58
2022/04/23 05:16:50;;;;;;;39.30;30.02;;;;;;;9.79;80.71;100472.78;7390031;19;20019;-58
2022/04/23 05:19:19;;;;;;;35.92;29.20;;;;;;;9.84;80.57;100467.31;7390026;19;20328;-59
2022/04/23 05:21:49;;;;;;;37.45;29.73;;;;;;;9.90;80.46;100472.28;7390494;19;20010;-59
2022/04/23 05:24:18;;;;;;;37.55;29.38;;;;;;;9.91;80.24;100470.50;7388481;19;20459;-60
2022/04/23 05:26:46;;;;;;;36.95;28.95;;;;;;;9.94;79.67;100468.56;7391220;19;20753;-59
2022/04/23 05:29:18;;;;;;;37.85;29.52;;;;;;;9.85;80.22;100479.50;7389029;19;20010;-55
2022/04/23 05:31:47;;;;;;;36.25;28.88;;;;;;;9.91;80.13;100467.88;7390539;19;20021;-57
2022/04/23 05:34:16;;;;;;;36.13;29.50;;;;;;;9.93;79.86;100469.53;7388010;19;20018;-59
2022/04/23 05:36:45;;;;;;;36.17;29.35;;;;;;;9.75;80.32;100460.75;7391750;19;20007;-59
2022/04/23 05:39:14;;;;;;;34.78;28.42;;;;;;;9.77;80.33;100465.91;7389224;19;20020;-57
2022/04/23 05:41:43;;;;;;;35.05;28.45;;;;;;;9.76;80.67;100470.31;7392491;19;20014;-55
2022/04/23 05:44:11;;;;;;;33.33;27.30;;;;;;;9.72;80.82;100467.91;7390642;19;20022;-58
2022/04/23 05:46:43;;;;;;;34.80;28.10;;;;;;;9.65;80.78;100467.34;7396196;19;20013;-60
2022/04/23 05:49:13;;;;;;;34.97;27.80;;;;;;;9.72;80.86;100466.13;7391912;19;20010;-60
2022/04/23 05:51:42;;;;;;;35.45;28.25;;;;;;;9.79;80.61;100470.16;7393534;19;20023;-59
2022/04/23 05:54:11;;;;;;;33.92;27.85;;;;;;;9.83;80.46;100458.63;7390396;19;20014;-61
2022/04/23 05:56:40;;;;;;;33.85;26.77;;;;;;;9.87;80.01;100464.56;7392223;19;20010;-59
2022/04/23 05:59:10;;;;;;;32.33;26.70;;;;;;;9.87;79.77;100467.16;7390578;19;20048;-58
2022/04/23 06:01:39;;;;;;;32.00;26.38;;;;;;;9.81;79.80;100463.06;7391250;19;20014;-59
2022/04/23 06:04:11;;;;;;;34.22;28.17;;;;;;;9.89;79.57;100467.13;7388778;19;20029;-57
2022/04/23 06:06:39;;;;;;;33.80;26.77;;;;;;;9.99;79.18;100474.47;7390250;19;20476;-58
2022/04/23 06:09:09;;;;;;;30.02;25.38;;;;;;;10.00;79.12;100467.44;7390328;19;20021;-58
2022/04/23 06:11:37;;;;;;;32.92;25.48;;;;;;;9.89;79.13;100482.81;7390164;19;20455;-57
2022/04/23 06:14:06;;;;;;;32.05;25.27;;;;;;;9.81;79.28;100486.63;7388271;19;20022;-57
2022/04/23 06:16:37;;;;;;;47.03;26.50;;;;;;;9.86;79.30;100481.19;7390543;19;20018;-58
2022/04/23 06:19:06;;;;;;;34.65;25.38;;;;;;;9.90;79.11;100488.00;7388659;19;20033;-59
2022/04/23 06:21:38;;;;;;;32.10;24.85;;;;;;;9.97;78.75;100488.53;7389607;19;20526;-60
2022/04/23 06:24:08;;;;;;;30.75;25.73;;;;;;;10.10;78.51;100483.56;7386649;19;20025;-58
2022/04/23 06:26:37;;;;;;;31.10;24.52;;;;;;;10.07;78.08;100478.47;7389481;19;20019;-58
2022/04/23 06:29:06;;;;;;;28.77;24.55;;;;;;;10.07;78.20;100475.84;7386380;19;20017;-58
2022/04/23 06:31:35;;;;;;;30.45;24.50;;;;;;;10.14;77.98;100477.25;7390205;19;20015;-60
2022/04/23 06:34:04;;;;;;;28.75;24.08;;;;;;;10.19;77.84;100477.91;7385596;19;20011;-60
2022/04/23 06:36:33;;;;;;;30.13;24.90;;;;;;;10.26;77.31;100475.81;7389543;19;20086;-55
2022/04/23 06:39:05;;;;;;;31.75;24.23;;;;;;;10.31;77.37;100474.66;7386125;19;20025;-57
2022/04/23 06:41:33;;;;;;;28.10;23.58;;;;;;;10.46;76.63;100475.75;7389631;19;20332;-60
2022/04/23 06:44:03;;;;;;;29.05;23.63;;;;;;;10.49;76.58;100475.59;7384683;19;20059;-61
2022/04/23 06:46:32;;;;;;;29.60;24.10;;;;;;;10.47;76.13;100481.81;7389067;19;20479;-61
2022/04/23 06:49:05;;;;;;;29.98;23.85;;;;;;;10.49;75.97;100478.19;7386124;19;20014;-57
2022/04/23 06:51:34;;;;;;;30.10;23.42;;;;;;;10.56;75.92;100473.50;7388669;19;20479;-59
2022/04/23 06:54:05;;;;;;;29.30;23.23;;;;;;;10.69;75.46;100484.22;7384711;19;20023;-60
2022/04/23 06:56:34;;;;;;;31.52;23.98;;;;;;;10.65;76.21;100485.31;7388787;19;20021;-61
2022/04/23 06:59:04;;;;;;;27.95;23.33;;;;;;;10.84;75.05;100478.19;7386249;19;20369;-59
2022/04/23 07:01:33;;;;;;;30.33;23.63;;;;;;;10.97;74.42;100478.41;7387221;19;20082;-60
2022/04/23 07:04:02;;;;;;;27.02;22.67;;;;;;;11.11;73.88;100474.25;7383937;19;20018;-58
2022/04/23 07:06:31;;;;;;;28.85;23.70;;;;;;;11.18;72.97;100475.63;7388223;19;20070;-60
2022/04/23 07:09:00;;;;;;;29.80;23.20;;;;;;;11.34;73.05;100479.13;7385655;19;20019;-57
2022/04/23 07:11:31;;;;;;;27.80;23.42;;;;;;;11.51;72.36;100482.63;7388401;19;20021;-60
2022/04/23 07:14:00;;;;;;;30.95;23.45;;;;;;;11.65;71.87;100474.00;7384506;19;20022;-58
2022/04/23 07:16:29;;;;;;;29.58;23.05;;;;;;;11.59;71.95;100477.78;7387274;19;20022;-60
2022/04/23 07:19:00;;;;;;;27.05;22.75;;;;;;;11.69;71.61;100473.75;7385577;19;20010;-59
2022/04/23 07:21:29;;;;;;;28.38;23.52;;;;;;;11.85;70.68;100473.75;7387710;19;20508;-60
2022/04/23 07:24:10;;;;;;;28.67;23.13;;;;;;;11.99;70.66;100474.78;7384139;19;20019;-60
2022/04/23 07:26:41;;;;;;;29.40;24.95;;;;;;;11.93;69.82;100478.56;7387541;19;20033;-59
2022/04/23 07:29:13;;;;;;;28.42;22.83;;;;;;;12.03;70.00;100474.53;7385232;19;20023;-59
2022/04/23 07:31:42;;;;;;;31.45;23.38;;;;;;;11.93;69.97;100475.94;7387427;19;20074;-59
2022/04/23 07:39:36;;;;;;;34.75;23.38;;;;;;;11.95;69.66;100458.38;7388484;19;20074;-60
2022/04/23 07:42:09;;;;;;;41.78;24.65;;;;;;;12.13;69.02;100466.16;7393151;19;20051;-60
2022/04/23 07:44:37;;;;;;;27.38;23.42;;;;;;;12.15;68.51;100462.50;7393539;19;20018;-59
2022/04/23 07:47:07;;;;;;;28.08;22.92;;;;;;;12.24;68.69;100464.59;7393723;19;20010;-58
2022/04/23 07:49:37;;;;;;;28.88;24.35;;;;;;;12.18;68.33;100469.34;7393028;19;20463;-57
2022/04/23 07:52:06;;;;;;;27.83;23.63;;;;;;;12.19;68.86;100464.03;7393905;19;20022;-57
2022/04/23 07:54:38;;;;;;;31.02;23.20;;;;;;;12.30;69.01;100471.28;7390318;19;20018;-60
2022/04/23 07:57:10;;;;;;;28.75;24.05;;;;;;;12.40;68.47;100468.97;7393474;19;20019;-59
2022/04/23 07:59:41;;;;;;;29.08;23.45;;;;;;;12.40;67.90;100474.25;7394624;19;20019;-60
2022/04/23 08:02:10;;;;;;;27.23;22.58;;;;;;;12.34;67.99;100472.81;7392475;19;20026;-60
2022/04/23 08:04:39;;;;;;;26.63;22.17;;;;;;;12.55;67.53;100468.09;7392756;19;20052;-59
2022/04/23 08:07:08;;;;;;;27.25;22.27;;;;;;;12.73;67.33;100468.78;7393002;19;20078;-60
2022/04/23 08:09:39;;;;;;;29.20;22.98;;;;;;;12.57;67.08;100474.09;7392094;19;20011;-60
2022/04/23 08:12:12;;;;;;;26.90;22.35;;;;;;;12.51;67.58;100469.22;7392153;19;20058;-60
2022/04/23 08:14:42;;;;;;;28.92;23.52;;;;;;;12.77;66.68;100462.41;7389020;19;20015;-59
2022/04/23 08:17:10;;;;;;;32.60;23.45;;;;;;;12.99;65.63;100463.75;7393467;19;20011;-60
2022/04/23 08:19:40;;;;;;;49.88;24.55;;;;;;;13.03;65.53;100453.91;7391174;19;20011;-57
2022/04/23 08:22:08;;;;;;;26.77;22.65;;;;;;;13.19;65.74;100456.47;7392218;19;20521;-59
2022/04/23 08:24:39;;;;;;;30.98;23.98;;;;;;;13.30;64.82;100444.31;7392225;19;20019;-60
2022/04/23 08:27:10;;;;;;;46.83;24.23;;;;;;;13.60;63.95;100440.75;7392861;19;20019;-59
2022/04/23 08:32:20;;;;;;;36.75;23.75;;;;;;;13.67;63.63;100439.44;7392607;19;20085;-60
2022/04/23 08:34:49;;;;;;;29.30;24.05;;;;;;;13.64;63.20;100447.53;7389523;19;20022;-61
2022/04/23 08:37:18;;;;;;;29.30;23.60;;;;;;;13.68;63.17;100445.53;7392074;19;20014;-59
2022/04/23 08:39:47;;;;;;;36.45;25.52;;;;;;;13.56;63.41;100439.25;7390565;19;20014;-60
2022/04/23 08:42:21;;;;;;;35.00;25.95;;;;;;;13.66;62.47;100444.78;7391387;19;20034;-60
2022/04/23 08:44:51;;;;;;;33.58;25.48;;;;;;;13.58;63.22;100440.03;7391760;19;20018;-63
2022/04/23 08:47:21;;;;;;;39.10;25.52;;;;;;;13.84;62.34;100454.16;7392519;19;20011;-61
2022/04/23 08:49:54;;;;;;;29.52;23.63;;;;;;;13.65;62.59;100436.06;7390451;19;20018;-60
2022/04/23 08:52:31;;;;;;;30.25;23.98;;;;;;;13.87;61.66;100423.28;7389498;19;20007;-60
2022/04/23 08:55:02;;;;;;;49.47;27.35;;;;;;;13.87;61.30;100434.69;7389047;19;20125;-58
2022/04/23 08:57:33;;;;;;;31.77;24.33;;;;;;;13.78;62.12;100422.09;7391956;19;20014;-58
2022/04/23 09:00:04;;;;;;;29.00;24.05;;;;;;;14.04;61.27;100435.38;7389982;19;20018;-61
2022/04/23 09:02:35;;;;;;;29.83;24.38;;;;;;;14.15;59.96;100435.50;7391092;19;20020;-60
2022/04/23 09:05:05;;;;;;;30.83;24.75;;;;;;;14.10;60.76;100434.94;7390898;19;20131;-60
2022/04/23 09:07:34;;;;;;;27.83;23.13;;;;;;;14.30;60.22;100436.28;7389958;19;20010;-60
2022/04/23 09:10:04;;;;;;;36.40;23.85;;;;;;;14.48;60.30;100432.41;7390343;19;20035;-59
2022/04/23 09:12:35;;;;;;;29.05;24.05;;;;;;;14.43;59.05;100424.00;7391086;19;20029;-59
2022/04/23 09:23:39;;;;;;;32.90;23.38;;;;;;;14.61;58.48;100427.16;7388569;19;20082;-60
2022/04/23 09:23:43;;;;;;;30.55;24.02;;;;;;;14.46;58.64;100426.41;7388783;19;20091;-61
2022/04/23 09:26:20;;;;;;;30.85;23.88;;;;;;;14.47;59.45;100422.84;7391767;19;20505;-60
2022/04/23 09:28:55;;;;;;;92.10;27.02;;;;;;;14.97;57.86;100423.03;7389590;19;20098;-59
2022/04/23 09:31:26;;;;;;;31.70;23.75;;;;;;;15.09;56.94;100429.22;7390809;19;20014;-60
2022/04/23 09:33:55;;;;;;;29.02;22.85;;;;;;;14.97;57.24;100428.31;7386824;19;20100;-59
2022/04/23 09:36:24;;;;;;;31.48;24.83;;;;;;;14.88;57.00;100428.91;7391787;19;20029;-59
2022/04/23 09:39:03;;;;;;;35.40;25.30;;;;;;;14.67;57.34;100439.13;7388987;19;20439;-58
2022/04/23 09:41:36;;;;;;;30.73;23.23;;;;;;;14.86;57.06;100422.91;7390357;19;20018;-60
2022/04/23 09:44:12;;;;;;;31.80;24.13;;;;;;;14.86;56.59;100421.09;7387007;19;20430;-60
2022/04/23 09:46:44;;;;;;;31.77;23.85;;;;;;;15.07;57.07;100431.13;7390626;19;20221;-61
2022/04/23 09:49:13;;;;;;;30.75;23.40;;;;;;;14.90;55.91;100428.81;7389145;19;20475;-61
2022/04/23 09:51:42;;;;;;;30.90;23.55;;;;;;;14.95;55.62;100430.19;7390855;19;20010;-59
2022/04/23 09:54:12;;;;;;;31.17;23.33;;;;;;;15.04;56.31;100426.94;7386880;19;20010;-58
2022/04/23 09:56:42;;;;;;;31.15;23.33;;;;;;;15.12;55.34;100442.22;7391711;19;20014;-58
2022/04/23 09:59:13;;;;;;;33.58;23.75;;;;;;;14.84;56.12;100427.44;7387001;19;20022;-61
2022/04/23 10:01:43;;;;;;;28.33;23.25;;;;;;;15.05;55.31;100431.22;7394001;19;20035;-61
2022/04/23 10:04:13;;;;;;;31.70;23.40;;;;;;;15.25;54.53;100436.91;7387339;19;20015;-60
2022/04/23 10:06:43;;;;;;;28.35;23.10;;;;;;;14.82;55.71;100427.53;7395185;19;20136;-57
2022/04/23 10:09:16;;;;;;;28.80;23.38;;;;;;;14.80;55.89;100433.88;7393650;19;20022;-65
2022/04/23 10:11:45;;;;;;;34.90;23.35;;;;;;;14.94;55.11;100427.66;7394551;19;20022;-59
2022/04/23 10:14:22;;;;;;;29.20;22.83;;;;;;;15.03;55.65;100438.41;7392175;19;20456;-60
2022/04/23 10:16:53;;;;;;;49.45;25.02;;;;;;;15.43;54.58;100442.72;7395657;19;20010;-60
2022/04/23 10:19:24;;;;;;;29.05;23.08;;;;;;;16.09;53.61;100429.22;7395349;19;20034;-60
2022/04/23 10:22:02;;;;;;;29.73;23.25;;;;;;;16.17;52.62;100429.47;7394691;19;20034;-60
2022/04/23 10:24:39;;;;;;;27.83;21.85;;;;;;;16.05;52.32;100427.75;7392645;19;20068;-60
2022/04/23 10:27:09;;;;;;;68.50;25.00;;;;;;;15.62;52.98;100426.38;7395120;19;20010;-60
2022/04/23 10:29:41;;;;;;;28.63;22.23;;;;;;;15.63;53.27;100427.22;7393021;19;20123;-61
2022/04/23 10:32:20;;;;;;;25.27;21.23;;;;;;;15.75;52.64;100429.00;7391240;19;20022;-60
2022/04/23 10:34:49;;;;;;;27.70;21.38;;;;;;;16.01;52.24;100419.19;7388640;19;20049;-58
2022/04/23 10:37:20;;;;;;;35.53;22.52;;;;;;;16.13;51.61;100420.06;7390901;19;20376;-61
2022/04/23 10:40:18;;;;;;;28.08;21.88;;;;;;;16.50;52.12;100422.59;7388807;19;20494;-61
2022/04/23 10:43:09;;;;;;;28.77;21.75;;;;;;;16.50;51.04;100417.31;7390279;19;20026;-59
2022/04/23 10:45:42;;;;;;;27.17;22.83;;;;;;;16.42;51.59;100417.91;7389208;19;20018;-63
2022/04/23 10:48:30;;;;;;;30.80;23.02;;;;;;;16.24;51.60;100419.28;7388349;19;20014;-60
2022/04/23 10:51:03;;;;;;;28.25;23.27;;;;;;;16.14;51.98;100410.34;7386846;19;20010;-59
2022/04/23 10:53:59;;;;;;;32.25;23.42;;;;;;;16.34;51.83;100415.00;7388103;19;20369;-59
2022/04/23 10:56:36;;;;;;;30.00;23.45;;;;;;;16.77;50.61;100397.66;7390907;19;20078;-59
2022/04/23 10:59:05;;;;;;;28.35;23.65;;;;;;;17.02;50.25;100401.06;7386354;19;20015;-60
2022/04/23 11:01:37;;;;;;;30.08;22.48;;;;;;;17.25;49.83;100405.41;7388133;19;20019;-59
2022/04/23 11:04:13;;;;;;;69.25;26.17;;;;;;;16.94;49.77;100412.25;7385363;19;20033;-59
2022/04/23 11:12:32;;;;;;;30.65;24.08;;;;;;;16.69;50.67;100406.19;7386164;19;20030;-60
2022/04/23 11:15:01;;;;;;;31.23;24.42;;;;;;;16.64;50.17;100407.50;7389914;19;20022;-60
2022/04/23 11:17:58;;;;;;;30.33;23.00;;;;;;;17.28;51.08;100391.09;7395375;19;20018;-61
2022/04/23 11:20:32;;;;;;;30.00;23.23;;;;;;;17.44;48.31;100398.66;7395044;19;20056;-59
2022/04/23 11:23:03;;;;;;;32.83;24.45;;;;;;;17.41;48.15;100389.13;7393029;19;20029;-60
2022/04/23 11:25:33;;;;;;;31.08;23.30;;;;;;;18.07;48.38;100390.06;7396263;19;20014;-59
2022/04/23 11:28:16;;;;;;;29.02;22.67;;;;;;;18.36;46.41;100386.78;7394839;19;20014;-60
2022/04/23 11:30:45;;;;;;;;;;;;;;;18.06;45.50;100386.56;7395731;19;20019;-61
2022/04/23 11:33:16;;;;;;;35.40;24.23;;;;;;;17.69;46.39;100396.66;7393644;19;19914;-60
2022/04/23 11:35:45;;;;;;;29.00;23.17;;;;;;;17.53;47.05;100374.06;7393304;19;20030;-61
2022/04/23 11:38:23;;;;;;;35.88;23.00;;;;;;;18.22;46.56;100377.31;7395596;19;20086;-60
2022/04/23 11:40:52;;;;;;;31.88;24.38;;;;;;;18.18;46.23;100379.38;7396025;19;20045;-60
2022/04/23 11:43:37;;;;;;;31.33;24.17;;;;;;;17.83;47.10;100371.69;7393980;19;20044;-62
2022/04/23 11:46:08;;;;;;;30.38;24.58;;;;;;;18.06;46.97;100375.94;7396772;19;20021;-61
2022/04/23 11:48:51;;;;;;;32.17;24.48;;;;;;;17.67;46.86;100369.47;7395020;19;20023;-61
2022/04/23 11:51:23;;;;;;;33.70;23.73;;;;;;;17.78;46.47;100377.34;7394749;19;20021;-61